createdAt,value
2018-09-20T00:00:45.383Z,10.40
2018-09-20T00:01:45.378Z,9.40
2018-09-20T00:02:45.371Z,11.00
2018-09-20T00:03:45.350Z,9.50
2018-09-20T00:04:45.340Z,8.50
2018-09-20T00:05:45.341Z,10.60
2018-09-20T00:06:45.342Z,11.80
2018-09-20T00:07:45.310Z,11.90
2018-09-20T00:08:45.306Z,10.30
2018-09-20T00:09:45.281Z,10.80
2018-09-20T00:10:45.267Z,11.20
2018-09-20T00:11:45.258Z,10.20
2018-09-20T00:12:45.278Z,8.80
2018-09-20T00:13:45.237Z,9.90
2018-09-20T00:14:45.228Z,12.40
2018-09-20T00:15:45.219Z,10.30
2018-09-20T00:16:45.228Z,10.50
2018-09-20T00:17:45.193Z,10.40
2018-09-20T00:18:45.199Z,11.90
2018-09-20T00:19:45.176Z,12.00
2018-09-20T00:20:45.162Z,11.50
2018-09-20T00:21:45.154Z,12.50
2018-09-20T00:22:45.140Z,11.40
2018-09-20T00:23:45.147Z,11.70
2018-09-20T00:24:45.138Z,11.30
2018-09-20T00:25:45.103Z,12.30
2018-09-20T00:26:45.092Z,13.30
2018-09-20T00:27:45.104Z,10.90
2018-09-20T00:28:45.075Z,10.20
2018-09-20T00:29:45.059Z,10.80
2018-09-20T00:30:45.201Z,11.00
2018-09-20T00:31:45.044Z,10.70
2018-09-20T00:32:45.025Z,11.90
2018-09-20T00:33:45.013Z,12.00
2018-09-20T00:34:45.000Z,11.70
2018-09-20T00:35:44.989Z,12.10
2018-09-20T00:36:45.174Z,11.00
2018-09-20T00:37:44.970Z,11.50
2018-09-20T00:38:44.956Z,11.40
2018-09-20T00:39:44.946Z,10.70
2018-09-20T00:40:44.932Z,11.30
2018-09-20T00:41:44.921Z,10.70
2018-09-20T00:42:44.930Z,12.80
2018-09-20T00:43:44.897Z,11.20
2018-09-20T00:44:44.886Z,9.70
2018-09-20T00:45:44.875Z,11.50
2018-09-20T00:46:44.865Z,10.70
2018-09-20T00:47:44.869Z,12.60
2018-09-20T00:48:44.843Z,11.90
2018-09-20T00:49:44.839Z,12.40
2018-09-20T00:50:44.822Z,11.50
2018-09-20T00:51:44.811Z,11.60
2018-09-20T00:52:45.084Z,10.40
2018-09-20T00:53:44.787Z,11.70
2018-09-20T00:54:44.775Z,10.60
2018-09-20T00:55:44.811Z,10.40
2018-09-20T00:56:44.765Z,12.20
2018-09-20T00:57:44.742Z,12.20
2018-09-20T00:58:44.753Z,12.00
2018-09-20T00:59:44.725Z,11.70
2018-09-20T01:00:44.712Z,9.60
2018-09-20T01:01:44.697Z,12.40
2018-09-20T01:02:44.685Z,10.40
2018-09-20T01:03:44.695Z,12.50
2018-09-20T01:04:44.682Z,11.70
2018-09-20T01:05:44.651Z,13.00
2018-09-20T01:06:44.639Z,9.70
2018-09-20T01:07:44.629Z,11.10
2018-09-20T01:08:44.629Z,10.50
2018-09-20T01:09:44.603Z,13.10
2018-09-20T01:10:44.613Z,12.30
2018-09-20T01:11:44.584Z,10.90
2018-09-20T01:12:44.571Z,12.20
2018-09-20T01:13:44.558Z,9.60
2018-09-20T01:14:44.551Z,9.20
2018-09-20T01:15:44.688Z,10.20
2018-09-20T01:16:44.532Z,11.30
2018-09-20T01:17:44.514Z,12.50
2018-09-20T01:18:44.510Z,10.90
2018-09-20T01:19:44.499Z,11.40
2018-09-20T01:20:44.516Z,11.60
2018-09-20T01:21:44.470Z,11.10
2018-09-20T01:22:44.460Z,12.50
2018-09-20T01:23:44.446Z,11.40
2018-09-20T01:24:44.604Z,10.80
2018-09-20T01:25:44.428Z,11.40
2018-09-20T01:26:44.414Z,10.80
2018-09-20T01:27:44.423Z,11.20
2018-09-20T01:28:44.398Z,11.30
2018-09-20T01:29:44.379Z,12.10
2018-09-20T01:30:44.411Z,13.00
2018-09-20T01:31:44.368Z,12.20
2018-09-20T01:32:44.355Z,11.20
2018-09-20T01:33:44.334Z,12.10
2018-09-20T01:34:44.355Z,11.90
2018-09-20T01:35:44.307Z,10.10
2018-09-20T01:36:44.318Z,13.40
2018-09-20T01:37:44.299Z,11.50
2018-09-20T01:38:44.280Z,11.20
2018-09-20T01:39:44.275Z,14.80
2018-09-20T01:40:44.280Z,12.90
2018-09-20T01:41:44.242Z,13.20
2018-09-20T01:42:44.243Z,10.90
2018-09-20T01:43:44.216Z,13.80
2018-09-20T01:44:44.214Z,10.80
2018-09-20T01:45:44.194Z,11.70
2018-09-20T01:46:44.348Z,11.10
2018-09-20T01:47:44.176Z,12.60
2018-09-20T01:48:44.162Z,11.50
2018-09-20T01:49:44.148Z,11.20
2018-09-20T01:50:44.141Z,12.90
2018-09-20T01:51:44.126Z,10.50
2018-09-20T01:52:44.144Z,10.10
2018-09-20T01:53:44.117Z,12.80
2018-09-20T01:54:44.088Z,11.10
2018-09-20T01:55:44.079Z,11.20
2018-09-20T01:56:44.088Z,11.80
2018-09-20T01:57:44.055Z,14.50
2018-09-20T01:58:44.047Z,13.20
2018-09-20T01:59:44.034Z,12.60
2018-09-20T02:00:44.030Z,12.90
2018-09-20T02:01:44.176Z,10.90
2018-09-20T02:02:43.999Z,12.40
2018-09-20T02:03:43.993Z,12.60
2018-09-20T02:04:43.984Z,11.90
2018-09-20T02:05:43.968Z,12.40
2018-09-20T02:06:44.008Z,13.10
2018-09-20T02:07:43.946Z,13.50
2018-09-20T02:08:43.939Z,13.40
2018-09-20T02:09:43.922Z,12.00
2018-09-20T02:10:43.916Z,11.90
2018-09-20T02:11:44.045Z,14.80
2018-09-20T02:12:43.911Z,14.50
2018-09-20T02:13:43.901Z,14.50
2018-09-20T02:14:43.881Z,12.10
2018-09-20T02:15:43.863Z,13.30
2018-09-20T02:16:43.866Z,11.20
2018-09-20T02:17:43.854Z,13.70
2018-09-20T02:18:43.823Z,12.80
2018-09-20T02:19:43.827Z,12.70
2018-09-20T02:20:43.819Z,14.40
2018-09-20T02:21:43.803Z,15.70
2018-09-20T02:22:43.778Z,12.60
2018-09-20T02:23:43.791Z,14.20
2018-09-20T02:24:43.759Z,12.20
2018-09-20T02:25:43.746Z,14.00
2018-09-20T02:26:43.758Z,11.90
2018-09-20T02:27:43.748Z,13.60
2018-09-20T02:28:43.714Z,15.00
2018-09-20T02:29:43.698Z,15.40
2018-09-20T02:30:43.685Z,11.70
2018-09-20T02:31:43.866Z,13.70
2018-09-20T02:32:43.697Z,13.80
2018-09-20T02:33:43.653Z,16.30
2018-09-20T02:34:43.644Z,11.60
2018-09-20T02:35:43.633Z,13.40
2018-09-20T02:36:43.617Z,13.40
2018-09-20T02:37:43.620Z,14.10
2018-09-20T02:38:43.596Z,12.90
2018-09-20T02:39:43.612Z,10.80
2018-09-20T02:40:43.574Z,13.10
2018-09-20T02:41:43.562Z,16.90
2018-09-20T02:42:43.579Z,13.20
2018-09-20T02:43:43.543Z,14.30
2018-09-20T02:44:43.528Z,14.60
2018-09-20T02:45:43.521Z,13.80
2018-09-20T02:46:43.534Z,14.60
2018-09-20T02:47:43.516Z,12.50
2018-09-20T02:48:43.489Z,13.00
2018-09-20T02:49:43.489Z,13.00
2018-09-20T02:50:43.464Z,13.00
2018-09-20T02:51:43.459Z,14.90
2018-09-20T02:52:43.565Z,13.60
2018-09-20T02:53:43.430Z,12.40
2018-09-20T02:54:43.414Z,12.50
2018-09-20T02:55:43.409Z,11.80
2018-09-20T02:56:43.394Z,12.60
2018-09-20T02:57:43.383Z,14.70
2018-09-20T02:58:43.401Z,11.90
2018-09-20T02:59:43.365Z,12.60
2018-09-20T03:00:43.349Z,12.20
2018-09-20T03:01:43.352Z,10.20
2018-09-20T03:02:43.326Z,12.10
2018-09-20T03:03:43.321Z,11.90
2018-09-20T03:04:43.415Z,11.70
2018-09-20T03:05:43.310Z,13.80
2018-09-20T03:06:43.279Z,13.00
2018-09-20T03:07:43.276Z,11.60
2018-09-20T03:08:43.259Z,11.00
2018-09-20T03:09:43.259Z,10.40
2018-09-20T03:10:43.239Z,12.60
2018-09-20T03:11:43.219Z,12.70
2018-09-20T03:12:43.215Z,13.10
2018-09-20T03:13:43.216Z,12.10
2018-09-20T03:14:43.201Z,12.40
2018-09-20T03:15:43.180Z,11.90
2018-09-20T03:16:43.165Z,13.70
2018-09-20T03:17:43.151Z,12.80
2018-09-20T03:18:43.141Z,12.20
2018-09-20T03:19:43.165Z,13.60
2018-09-20T03:20:43.128Z,12.60
2018-09-20T03:21:43.109Z,10.40
2018-09-20T03:22:43.096Z,13.00
2018-09-20T03:23:43.099Z,12.10
2018-09-20T03:24:43.163Z,11.30
2018-09-20T03:25:43.066Z,11.40
2018-09-20T03:26:43.058Z,13.40
2018-09-20T03:27:43.049Z,10.40
2018-09-20T03:28:43.028Z,11.90
2018-09-20T03:29:43.021Z,12.10
2018-09-20T03:32:16.747Z,14.70
2018-09-20T03:33:16.731Z,13.50
2018-09-20T03:34:16.713Z,13.40
2018-09-20T03:35:16.726Z,12.30
2018-09-20T03:36:16.691Z,11.40
2018-09-20T03:37:16.697Z,12.60
2018-09-20T03:38:16.700Z,12.50
2018-09-20T03:39:16.659Z,12.80
2018-09-20T03:40:16.664Z,10.60
2018-09-20T03:41:16.640Z,13.80
2018-09-20T03:42:16.625Z,12.10
2018-09-20T03:43:16.628Z,12.20
2018-09-20T03:44:16.601Z,12.40
2018-09-20T03:45:16.612Z,11.80
2018-09-20T03:46:16.582Z,12.30
2018-09-20T03:47:16.568Z,10.30
2018-09-20T03:48:16.565Z,10.70
2018-09-20T03:49:16.553Z,11.20
2018-09-20T03:50:16.588Z,11.20
2018-09-20T03:51:16.534Z,12.40
2018-09-20T03:52:16.543Z,12.30
2018-09-20T03:53:16.506Z,12.20
2018-09-20T03:54:16.502Z,13.30
2018-09-20T03:55:16.511Z,13.10
2018-09-20T03:56:16.502Z,10.90
2018-09-20T03:57:16.465Z,10.90
2018-09-20T03:58:16.449Z,10.70
2018-09-20T03:59:16.438Z,12.00
2018-09-20T04:00:16.443Z,14.40
2018-09-20T04:01:16.440Z,11.10
2018-09-20T04:02:16.406Z,12.30
2018-09-20T04:03:16.389Z,12.60
2018-09-20T04:04:16.382Z,12.10
2018-09-20T04:05:16.389Z,13.60
2018-09-20T04:06:16.395Z,12.00
2018-09-20T04:07:16.386Z,11.90
2018-09-20T04:08:16.341Z,13.20
2018-09-20T04:09:16.324Z,13.10
2018-09-20T04:10:16.313Z,12.10
2018-09-20T04:11:16.319Z,11.60
2018-09-20T04:12:16.397Z,12.90
2018-09-20T04:13:16.285Z,11.40
2018-09-20T04:14:16.265Z,11.90
2018-09-20T04:15:16.271Z,12.40
2018-09-20T04:16:16.262Z,13.30
2018-09-20T04:17:16.239Z,12.90
2018-09-20T04:18:16.223Z,12.60
2018-09-20T04:19:16.210Z,12.40
2018-09-20T04:20:16.203Z,12.50
2018-09-20T04:21:16.246Z,12.80
2018-09-20T04:22:16.182Z,9.90
2018-09-20T04:23:16.167Z,14.00
2018-09-20T04:24:16.160Z,12.40
2018-09-20T04:25:16.145Z,11.90
2018-09-20T04:26:16.150Z,11.60
2018-09-20T04:27:16.130Z,11.90
2018-09-20T04:28:16.109Z,10.10
2018-09-20T04:29:16.106Z,11.40
2018-09-20T04:30:16.086Z,11.90
2018-09-20T04:31:16.096Z,12.40
2018-09-20T04:32:16.097Z,13.30
2018-09-20T04:33:16.054Z,14.70
2018-09-20T04:34:16.042Z,13.40
2018-09-20T04:35:16.029Z,11.90
2018-09-20T04:36:16.019Z,13.30
2018-09-20T04:37:16.012Z,10.20
2018-09-20T04:38:16.009Z,12.90
2018-09-20T04:39:15.994Z,11.40
2018-09-20T04:40:15.973Z,12.60
2018-09-20T04:41:15.972Z,12.90
2018-09-20T04:42:15.974Z,13.30
2018-09-20T04:43:15.943Z,11.90
2018-09-20T04:44:15.930Z,11.90
2018-09-20T04:45:15.926Z,12.70
2018-09-20T04:46:15.910Z,11.70
2018-09-20T04:47:15.917Z,10.10
2018-09-20T04:48:15.887Z,13.50
2018-09-20T04:49:15.880Z,11.30
2018-09-20T04:50:15.866Z,11.10
2018-09-20T04:51:15.857Z,13.40
2018-09-20T04:52:15.875Z,12.30
2018-09-20T04:53:15.843Z,12.50
2018-09-20T04:54:15.823Z,12.60
2018-09-20T04:55:23.922Z,13.00
2018-09-20T04:56:15.869Z,12.80
2018-09-20T04:57:15.790Z,14.30
2018-09-20T04:58:15.809Z,13.70
2018-09-20T04:59:15.772Z,13.20
2018-09-20T05:00:15.761Z,11.30
2018-09-20T05:01:15.759Z,13.00
2018-09-20T05:02:15.742Z,12.00
2018-09-20T05:03:15.730Z,12.20
2018-09-20T05:04:15.888Z,12.90
2018-09-20T05:05:15.711Z,14.40
2018-09-20T05:06:15.696Z,11.80
2018-09-20T05:07:15.693Z,14.90
2018-09-20T05:08:15.677Z,13.10
2018-09-20T05:09:15.670Z,13.20
2018-09-20T05:10:15.665Z,12.40
2018-09-20T05:11:15.644Z,12.90
2018-09-20T05:12:15.629Z,13.20
2018-09-20T05:13:15.635Z,12.70
2018-09-20T05:14:15.612Z,14.10
2018-09-20T05:15:15.606Z,13.10
2018-09-20T05:16:15.591Z,12.20
2018-09-20T05:17:15.578Z,11.80
2018-09-20T05:18:15.583Z,12.60
2018-09-20T05:19:15.563Z,11.60
2018-09-20T05:20:15.627Z,11.60
2018-09-20T05:21:15.537Z,10.90
2018-09-20T05:22:15.524Z,11.90
2018-09-20T05:23:15.533Z,13.10
2018-09-20T05:24:15.504Z,13.10
2018-09-20T05:25:15.489Z,11.80
2018-09-20T05:26:15.481Z,13.80
2018-09-20T05:27:15.472Z,12.00
2018-09-20T05:28:15.490Z,11.50
2018-09-20T05:29:15.447Z,13.70
2018-09-20T05:30:15.438Z,15.70
2018-09-20T05:31:15.425Z,13.10
2018-09-20T05:32:15.416Z,12.20
2018-09-20T05:33:15.418Z,12.90
2018-09-20T05:34:15.421Z,13.60
2018-09-20T05:35:15.382Z,12.60
2018-09-20T05:36:15.387Z,13.70
2018-09-20T05:37:15.385Z,14.10
2018-09-20T05:38:15.409Z,13.90
2018-09-20T05:39:15.341Z,14.90
2018-09-20T05:40:15.338Z,14.00
2018-09-20T05:41:15.331Z,13.40
2018-09-20T05:42:15.308Z,11.20
2018-09-20T05:43:15.354Z,12.30
2018-09-20T05:44:15.287Z,13.70
2018-09-20T05:45:15.276Z,17.60
2018-09-20T05:46:15.272Z,15.70
2018-09-20T05:47:15.249Z,11.20
2018-09-20T05:48:15.250Z,14.50
2018-09-20T05:49:15.269Z,14.10
2018-09-20T05:50:15.220Z,13.70
2018-09-20T05:51:15.218Z,14.20
2018-09-20T05:52:15.201Z,15.10
2018-09-20T05:53:15.188Z,14.90
2018-09-20T05:54:15.197Z,14.50
2018-09-20T05:55:15.188Z,12.20
2018-09-20T05:56:15.159Z,15.00
2018-09-20T05:57:15.145Z,13.50
2018-09-20T05:58:15.140Z,15.00
2018-09-20T05:59:15.149Z,11.60
2018-09-20T06:00:15.128Z,12.70
2018-09-20T06:01:15.098Z,14.80
2018-09-20T06:02:15.098Z,14.60
2018-09-20T06:03:15.087Z,12.70
2018-09-20T06:04:15.077Z,14.10
2018-09-20T06:05:15.070Z,14.30
2018-09-20T06:06:15.042Z,14.50
2018-09-20T06:07:15.035Z,11.90
2018-09-20T06:08:15.020Z,13.20
2018-09-20T06:09:15.011Z,13.70
2018-09-20T06:10:15.026Z,12.60
2018-09-20T06:11:14.987Z,17.20
2018-09-20T06:12:14.982Z,14.20
2018-09-20T06:13:14.993Z,12.90
2018-09-20T06:14:14.953Z,14.40
2018-09-20T06:15:14.952Z,15.60
2018-09-20T06:16:14.958Z,13.30
2018-09-20T06:17:14.924Z,15.20
2018-09-20T06:18:14.915Z,16.00
2018-09-20T06:19:14.899Z,15.00
2018-09-20T06:20:15.181Z,12.10
2018-09-20T06:21:14.884Z,14.80
2018-09-20T06:22:14.869Z,15.30
2018-09-20T06:23:14.859Z,16.40
2018-09-20T06:24:14.850Z,14.70
2018-09-20T06:25:14.833Z,14.40
2018-09-20T06:26:14.853Z,14.70
2018-09-20T06:27:14.823Z,15.10
2018-09-20T06:28:14.852Z,14.60
2018-09-20T06:29:14.819Z,15.20
2018-09-20T06:30:14.825Z,16.30
2018-09-20T06:31:14.796Z,13.90
2018-09-20T06:32:14.780Z,13.90
2018-09-20T06:33:14.747Z,16.20
2018-09-20T06:34:14.741Z,14.00
2018-09-20T06:35:14.731Z,15.30
2018-09-20T06:36:14.740Z,15.30
2018-09-20T06:37:14.705Z,13.20
2018-09-20T06:38:14.697Z,14.40
2018-09-20T06:39:14.679Z,14.90
2018-09-20T06:40:14.701Z,15.70
2018-09-20T06:41:14.667Z,15.50
2018-09-20T06:42:14.649Z,15.00
2018-09-20T06:43:14.637Z,14.70
2018-09-20T06:44:14.622Z,14.60
2018-09-20T06:45:14.631Z,15.00
2018-09-20T06:46:14.627Z,14.70
2018-09-20T06:47:14.589Z,16.70
2018-09-20T06:48:14.572Z,14.30
2018-09-20T06:49:14.658Z,14.40
2018-09-20T06:50:14.565Z,15.30
2018-09-20T06:51:14.707Z,13.20
2018-09-20T06:52:14.612Z,15.90
2018-09-20T06:53:14.526Z,15.70
2018-09-20T06:54:14.512Z,16.50
2018-09-20T06:55:14.499Z,16.90
2018-09-20T06:56:14.484Z,14.10
2018-09-20T06:57:14.500Z,13.70
2018-09-20T06:58:14.472Z,14.30
2018-09-20T06:59:14.455Z,14.30
2018-09-20T07:00:14.443Z,13.20
2018-09-20T07:01:14.480Z,13.40
2018-09-20T07:02:14.416Z,12.50
2018-09-20T07:03:14.465Z,14.30
2018-09-20T07:04:14.392Z,12.40
2018-09-20T07:05:14.413Z,11.40
2018-09-20T07:06:14.390Z,14.20
2018-09-20T07:07:14.422Z,13.90
2018-09-20T07:08:14.345Z,13.20
2018-09-20T07:09:14.353Z,11.50
2018-09-20T07:10:14.323Z,12.80
2018-09-20T07:11:14.323Z,11.60
2018-09-20T07:12:14.333Z,13.10
2018-09-20T07:13:14.303Z,11.80
2018-09-20T07:14:14.280Z,13.80
2018-09-20T07:15:14.264Z,12.50
2018-09-20T07:16:14.284Z,10.10
2018-09-20T07:17:14.254Z,10.90
2018-09-20T07:18:14.230Z,13.70
2018-09-20T07:19:14.294Z,12.00
2018-09-20T07:20:14.217Z,11.90
2018-09-20T07:21:14.198Z,13.80
2018-09-20T07:22:14.205Z,12.80
2018-09-20T07:23:14.171Z,13.00
2018-09-20T07:24:14.162Z,13.30
2018-09-20T07:25:14.212Z,11.60
2018-09-20T07:26:14.152Z,11.30
2018-09-20T07:27:14.160Z,11.30
2018-09-20T07:28:14.135Z,10.10
2018-09-20T07:29:14.103Z,11.60
2018-09-20T07:30:14.095Z,11.40
2018-09-20T07:31:14.085Z,10.00
2018-09-20T07:32:14.104Z,11.30
2018-09-20T07:33:14.053Z,9.80
2018-09-20T07:34:14.048Z,13.90
2018-09-20T07:35:14.035Z,12.10
2018-09-20T07:36:14.024Z,13.80
2018-09-20T07:37:14.046Z,11.10
2018-09-20T07:38:14.051Z,11.20
2018-09-20T07:39:14.012Z,11.80
2018-09-20T07:40:14.007Z,10.40
2018-09-20T07:41:13.965Z,11.00
2018-09-20T07:42:13.986Z,10.40
2018-09-20T07:43:13.945Z,13.80
2018-09-20T07:44:13.929Z,12.20
2018-09-20T07:45:13.942Z,13.00
2018-09-20T07:46:13.910Z,9.00
2018-09-20T07:47:13.923Z,10.20
2018-09-20T07:48:13.891Z,12.40
2018-09-20T07:49:13.871Z,10.40
2018-09-20T07:50:13.862Z,9.60
2018-09-20T07:51:13.847Z,9.50
2018-09-20T07:52:13.850Z,8.00
2018-09-20T07:53:13.842Z,10.10
2018-09-20T07:54:13.818Z,11.00
2018-09-20T07:55:13.807Z,11.30
2018-09-20T07:56:13.799Z,11.50
2018-09-20T07:57:13.824Z,9.30
2018-09-20T07:58:13.802Z,10.90
2018-09-20T07:59:13.769Z,12.50
2018-09-20T08:00:13.762Z,8.20
2018-09-20T08:01:13.738Z,11.00
2018-09-20T08:02:13.727Z,10.40
2018-09-20T08:03:13.740Z,9.60
2018-09-20T08:04:13.745Z,9.70
2018-09-20T08:05:13.694Z,9.80
2018-09-20T08:06:13.723Z,9.90
2018-09-20T08:07:13.764Z,10.20
2018-09-20T08:08:13.688Z,9.00
2018-09-20T08:09:13.671Z,8.20
2018-09-20T08:10:13.670Z,10.50
2018-09-20T08:11:13.649Z,9.10
2018-09-20T08:12:13.647Z,10.50
2018-09-20T08:13:13.650Z,10.40
2018-09-20T08:14:13.591Z,10.00
2018-09-20T08:15:13.580Z,10.60
2018-09-20T08:16:13.573Z,10.40
2018-09-20T08:17:13.558Z,9.00
2018-09-20T08:18:13.558Z,9.60
2018-09-20T08:19:13.557Z,9.30
2018-09-20T08:20:13.541Z,11.70
2018-09-20T08:21:13.512Z,9.50
2018-09-20T08:22:13.507Z,11.00
2018-09-20T08:23:13.498Z,8.80
2018-09-20T08:24:13.503Z,8.80
2018-09-20T08:25:13.493Z,8.70
2018-09-20T08:26:13.488Z,11.20
2018-09-20T08:27:13.451Z,10.20
2018-09-20T08:28:13.448Z,8.90
2018-09-20T08:29:13.423Z,8.20
2018-09-20T08:30:13.642Z,10.10
2018-09-20T08:31:13.408Z,11.00
2018-09-20T08:32:13.421Z,8.30
2018-09-20T08:33:13.397Z,9.80
2018-09-20T08:34:13.399Z,9.40
2018-09-20T08:35:13.364Z,7.60
2018-09-20T08:36:13.394Z,10.20
2018-09-20T08:37:13.379Z,9.50
2018-09-20T08:38:13.328Z,9.50
2018-09-20T08:39:13.323Z,8.50
2018-09-20T08:40:13.367Z,10.80
2018-09-20T08:41:13.296Z,8.20
2018-09-20T08:42:13.313Z,8.30
2018-09-20T08:43:13.274Z,8.40
2018-09-20T08:44:13.344Z,9.40
2018-09-20T08:45:13.253Z,8.30
2018-09-20T08:46:13.314Z,9.00
2018-09-20T08:47:13.226Z,7.50
2018-09-20T08:48:13.245Z,10.80
2018-09-20T08:49:13.232Z,8.90
2018-09-20T08:50:13.197Z,9.90
2018-09-20T08:51:13.198Z,10.60
2018-09-20T08:52:13.204Z,7.80
2018-09-20T08:53:13.161Z,7.90
2018-09-20T08:54:13.404Z,11.40
2018-09-20T08:55:13.137Z,8.60
2018-09-20T08:56:13.154Z,10.30
2018-09-20T08:57:13.142Z,9.00
2018-09-20T08:58:13.143Z,11.80
2018-09-20T08:59:13.102Z,10.20
2018-09-20T09:00:13.157Z,8.30
2018-09-20T09:01:13.077Z,7.00
2018-09-20T09:02:13.060Z,10.90
2018-09-20T09:03:13.055Z,8.90
2018-09-20T09:04:13.047Z,9.50
2018-09-20T09:05:13.055Z,10.90
2018-09-20T09:06:13.016Z,9.00
2018-09-20T09:07:13.005Z,7.80
2018-09-20T09:08:12.995Z,6.60
2018-09-20T09:09:12.984Z,8.30
2018-09-20T09:10:12.975Z,7.20
2018-09-20T09:11:12.976Z,8.20
2018-09-20T09:12:12.950Z,9.70
2018-09-20T09:13:12.939Z,8.90
2018-09-20T09:14:12.924Z,9.50
2018-09-20T09:15:12.913Z,9.40
2018-09-20T09:16:12.955Z,9.00
2018-09-20T09:17:12.892Z,9.20
2018-09-20T09:18:12.884Z,9.40
2018-09-20T09:19:12.867Z,9.80
2018-09-20T09:20:12.881Z,9.40
2018-09-20T09:21:12.855Z,7.80
2018-09-20T09:22:12.852Z,10.40
2018-09-20T09:23:12.823Z,8.00
2018-09-20T09:24:12.823Z,8.90
2018-09-20T09:25:12.834Z,10.30
2018-09-20T09:26:12.825Z,8.50
2018-09-20T09:27:12.792Z,10.80
2018-09-20T09:28:12.775Z,7.80
2018-09-20T09:29:12.765Z,7.80
2018-09-20T09:30:12.765Z,8.20
2018-09-20T09:31:12.767Z,9.40
2018-09-20T09:32:12.730Z,7.70
2018-09-20T09:33:12.727Z,7.80
2018-09-20T09:34:12.760Z,7.70
2018-09-20T09:35:12.692Z,7.40
2018-09-20T09:36:12.681Z,10.20
2018-09-20T09:37:12.689Z,7.00
2018-09-20T09:38:12.665Z,6.80
2018-09-20T09:39:12.665Z,7.40
2018-09-20T09:40:12.637Z,8.50
2018-09-20T09:41:12.673Z,8.50
2018-09-20T09:42:12.628Z,7.70
2018-09-20T09:43:12.605Z,7.40
2018-09-20T09:44:12.605Z,7.80
2018-09-20T09:45:12.578Z,8.20
2018-09-20T09:46:12.579Z,7.00
2018-09-20T09:47:12.610Z,7.80
2018-09-20T09:48:12.707Z,8.60
2018-09-20T09:49:12.565Z,7.70
2018-09-20T09:50:12.552Z,6.70
2018-09-20T09:51:12.548Z,6.70
2018-09-20T09:52:12.554Z,8.40
2018-09-20T09:53:12.546Z,7.70
2018-09-20T09:54:12.539Z,7.20
2018-09-20T09:55:12.468Z,7.40
2018-09-20T09:56:12.473Z,8.40
2018-09-20T09:57:12.496Z,7.80
2018-09-20T09:58:12.470Z,8.90
2018-09-20T09:59:12.453Z,7.30
2018-09-20T10:00:12.436Z,6.70
2018-09-20T10:01:12.407Z,8.30
2018-09-20T10:02:12.415Z,8.40
2018-09-20T10:03:12.382Z,6.50
2018-09-20T10:04:12.374Z,7.60
2018-09-20T10:05:12.363Z,8.50
2018-09-20T10:06:12.355Z,8.20
2018-09-20T10:07:12.425Z,8.20
2018-09-20T10:08:12.331Z,7.90
2018-09-20T10:09:12.317Z,7.20
2018-09-20T10:10:12.326Z,7.50
2018-09-20T10:11:12.295Z,7.20
2018-09-20T10:12:12.285Z,6.00
2018-09-20T10:13:12.273Z,7.10
2018-09-20T10:14:12.291Z,7.90
2018-09-20T10:15:12.260Z,9.30
2018-09-20T10:16:12.237Z,7.00
2018-09-20T10:17:12.227Z,8.30
2018-09-20T10:18:12.240Z,8.30
2018-09-20T10:19:12.215Z,7.90
2018-09-20T10:20:12.190Z,8.20
2018-09-20T10:21:12.201Z,8.40
2018-09-20T10:22:12.172Z,6.90
2018-09-20T10:23:12.164Z,7.60
2018-09-20T10:24:12.150Z,7.50
2018-09-20T10:25:12.165Z,5.80
2018-09-20T10:26:12.124Z,6.90
2018-09-20T10:27:12.120Z,6.80
2018-09-20T10:28:12.214Z,7.00
2018-09-20T10:29:12.128Z,6.90
2018-09-20T10:30:12.108Z,5.80
2018-09-20T10:31:12.073Z,8.00
2018-09-20T10:32:12.085Z,7.10
2018-09-20T10:33:12.078Z,7.10
2018-09-20T10:34:12.179Z,6.30
2018-09-20T10:35:12.022Z,7.20
2018-09-20T10:36:12.021Z,6.30
2018-09-20T10:37:12.192Z,4.80
2018-09-20T10:38:11.995Z,7.10
2018-09-20T10:39:12.007Z,5.70
2018-09-20T10:40:11.972Z,6.30
2018-09-20T10:41:11.957Z,6.80
2018-09-20T10:42:11.947Z,7.20
2018-09-20T10:43:11.946Z,7.00
2018-09-20T10:44:11.931Z,8.20
2018-09-20T10:45:12.186Z,5.50
2018-09-20T10:46:11.966Z,8.80
2018-09-20T10:47:11.990Z,5.00
2018-09-20T10:48:11.884Z,5.60
2018-09-20T10:49:11.875Z,6.30
2018-09-20T10:50:11.859Z,6.00
2018-09-20T10:51:11.867Z,6.10
2018-09-20T10:52:11.837Z,6.50
2018-09-20T10:53:11.830Z,7.00
2018-09-20T10:54:11.815Z,5.70
2018-09-20T10:55:11.812Z,6.70
2018-09-20T10:56:11.823Z,6.80
2018-09-20T10:57:11.786Z,5.90
2018-09-20T10:58:11.780Z,5.80
2018-09-20T10:59:11.763Z,7.20
2018-09-20T11:00:11.746Z,6.10
2018-09-20T11:01:11.770Z,6.70
2018-09-20T11:02:11.744Z,6.00
2018-09-20T11:03:11.883Z,7.00
2018-09-20T11:04:11.731Z,6.10
2018-09-20T11:05:11.716Z,6.20
2018-09-20T11:06:11.726Z,6.00
2018-09-20T11:07:11.674Z,6.30
2018-09-20T11:08:11.688Z,5.70
2018-09-20T11:09:11.673Z,4.60
2018-09-20T11:10:11.716Z,5.80
2018-09-20T11:11:11.631Z,7.00
2018-09-20T11:12:11.619Z,5.10
2018-09-20T11:13:11.606Z,5.80
2018-09-20T11:14:11.594Z,6.00
2018-09-20T11:15:11.601Z,6.00
2018-09-20T11:16:11.602Z,4.70
2018-09-20T11:17:11.564Z,6.60
2018-09-20T11:18:11.572Z,7.40
2018-09-20T11:19:11.552Z,5.30
2018-09-20T11:20:11.557Z,5.00
2018-09-20T11:21:11.516Z,4.80
2018-09-20T11:22:11.507Z,6.30
2018-09-20T11:23:11.500Z,4.90
2018-09-20T11:24:11.488Z,6.10
2018-09-20T11:25:11.479Z,6.50
2018-09-20T11:26:11.494Z,5.80
2018-09-20T11:27:11.452Z,4.80
2018-09-20T11:28:11.446Z,6.70
2018-09-20T11:29:11.430Z,7.20
2018-09-20T11:30:11.420Z,5.60
2018-09-20T11:31:11.408Z,4.70
2018-09-20T11:32:11.428Z,4.30
2018-09-20T11:33:11.389Z,6.20
2018-09-20T11:34:11.371Z,7.30
2018-09-20T11:35:11.427Z,5.30
2018-09-20T11:36:11.423Z,5.40
2018-09-20T11:37:11.377Z,5.90
2018-09-20T11:38:11.614Z,6.40
2018-09-20T11:39:11.336Z,7.10
2018-09-20T11:40:11.328Z,5.40
2018-09-20T11:41:11.318Z,5.50
2018-09-20T11:42:11.307Z,6.50
2018-09-20T11:43:11.277Z,5.70
2018-09-20T11:44:11.305Z,5.70
2018-09-20T11:45:11.249Z,5.50
2018-09-20T11:46:11.248Z,6.40
2018-09-20T11:47:11.232Z,5.10
2018-09-20T11:48:11.227Z,6.80
2018-09-20T11:49:11.210Z,5.10
2018-09-20T11:50:11.225Z,7.00
2018-09-20T11:51:11.184Z,5.00
2018-09-20T11:52:11.211Z,6.40
2018-09-20T11:53:11.182Z,4.90
2018-09-20T11:54:11.154Z,6.40
2018-09-20T11:55:11.149Z,6.70
2018-09-20T11:56:11.130Z,5.90
2018-09-20T11:57:11.122Z,5.80
2018-09-20T11:58:11.135Z,6.10
2018-09-20T11:59:11.100Z,6.50
2018-09-20T12:00:11.086Z,5.50
2018-09-20T12:01:11.131Z,5.10
2018-09-20T12:02:11.065Z,4.80
2018-09-20T12:03:11.132Z,4.30
2018-09-20T12:04:11.050Z,5.10
2018-09-20T12:05:11.039Z,6.00
2018-09-20T12:06:11.036Z,5.10
2018-09-20T12:07:11.028Z,4.90
2018-09-20T12:08:11.020Z,4.50
2018-09-20T12:09:10.989Z,5.10
2018-09-20T12:10:10.989Z,5.70
2018-09-20T12:11:10.965Z,6.30
2018-09-20T12:12:10.952Z,5.10
2018-09-20T12:13:10.999Z,5.40
2018-09-20T12:14:10.935Z,5.70
2018-09-20T12:15:10.926Z,5.40
2018-09-20T12:16:10.935Z,5.00
2018-09-20T12:17:10.908Z,5.70
2018-09-20T12:18:10.890Z,5.80
2018-09-20T12:19:11.162Z,6.90
2018-09-20T12:20:10.863Z,5.00
2018-09-20T12:21:10.853Z,5.00
2018-09-20T12:22:10.850Z,6.10
2018-09-20T12:23:10.837Z,6.10
2018-09-20T12:24:10.822Z,5.00
2018-09-20T12:25:10.844Z,5.20
2018-09-20T12:26:10.794Z,5.50
2018-09-20T12:27:10.815Z,5.20
2018-09-20T12:28:10.794Z,4.70
2018-09-20T12:29:10.777Z,6.00
2018-09-20T12:30:10.780Z,4.40
2018-09-20T12:31:10.743Z,5.00
2018-09-20T12:32:10.755Z,5.50
2018-09-20T12:33:10.742Z,5.80
2018-09-20T12:34:10.718Z,6.10
2018-09-20T12:35:10.704Z,5.30
2018-09-20T12:36:10.703Z,5.90
2018-09-20T12:37:10.708Z,5.90
2018-09-20T12:38:10.709Z,6.20
2018-09-20T12:39:10.733Z,5.40
2018-09-20T12:40:10.645Z,4.30
2018-09-20T12:41:10.711Z,6.10
2018-09-20T12:42:10.625Z,4.90
2018-09-20T12:43:10.656Z,5.00
2018-09-20T12:44:10.609Z,5.70
2018-09-20T12:45:10.600Z,6.40
2018-09-20T12:46:10.574Z,6.10
2018-09-20T12:47:10.591Z,5.80
2018-09-20T12:48:10.578Z,4.30
2018-09-20T12:49:10.638Z,6.50
2018-09-20T12:50:10.570Z,6.20
2018-09-20T12:51:10.549Z,5.90
2018-09-20T12:52:10.509Z,5.60
2018-09-20T12:53:10.523Z,6.00
2018-09-20T12:54:10.486Z,5.20
2018-09-20T12:55:10.525Z,5.40
2018-09-20T12:56:10.466Z,5.40
2018-09-20T12:57:10.457Z,6.00
2018-09-20T12:58:10.446Z,4.80
2018-09-20T12:59:10.459Z,5.00
2018-09-20T13:00:10.452Z,4.80
2018-09-20T13:01:10.436Z,6.30
2018-09-20T13:02:10.462Z,5.10
2018-09-20T13:03:10.426Z,4.80
2018-09-20T13:04:10.384Z,5.60